sensor_id;sensor_type;location;lat;lon;timestamp;temperature;humidity
8152;DHT22;4117;53.622;9.958;2023-06-22T00:01:19;17.80;1.00
8152;DHT22;4117;53.622;9.958;2023-06-22T00:03:47;17.80;1.00
8152;DHT22;4117;53.622;9.958;2023-06-22T00:06:14;17.70;1.00
8152;DHT22;4117;53.622;9.958;2023-06-22T00:08:42;17.60;1.00
8152;DHT22;4117;53.622;9.958;2023-06-22T00:11:08;17.60;1.00
8152;DHT22;4117;53.622;9.958;2023-06-22T00:13:35;17.60;1.00
8152;DHT22;4117;53.622;9.958;2023-06-22T00:16:03;17.50;1.00
8152;DHT22;4117;53.622;9.958;2023-06-22T00:18:31;17.50;1.00
8152;DHT22;4117;53.622;9.958;2023-06-22T00:21:00;17.50;1.00
8152;DHT22;4117;53.622;9.958;2023-06-22T00:23:27;17.50;1.00
8152;DHT22;4117;53.622;9.958;2023-06-22T00:25:54;17.50;1.00
8152;DHT22;4117;53.622;9.958;2023-06-22T00:28:21;17.40;1.00
8152;DHT22;4117;53.622;9.958;2023-06-22T00:30:48;17.40;1.00
8152;DHT22;4117;53.622;9.958;2023-06-22T00:33:15;17.40;1.00
8152;DHT22;4117;53.622;9.958;2023-06-22T00:35:43;17.40;1.00
8152;DHT22;4117;53.622;9.958;2023-06-22T00:38:11;17.40;1.00
8152;DHT22;4117;53.622;9.958;2023-06-22T00:40:38;17.30;1.00
8152;DHT22;4117;53.622;9.958;2023-06-22T00:43:05;17.30;1.00
8152;DHT22;4117;53.622;9.958;2023-06-22T00:45:32;17.30;1.00
8152;DHT22;4117;53.622;9.958;2023-06-22T00:48:00;17.30;1.00
8152;DHT22;4117;53.622;9.958;2023-06-22T00:50:29;17.20;1.00
8152;DHT22;4117;53.622;9.958;2023-06-22T00:53:03;17.20;1.00
8152;DHT22;4117;53.622;9.958;2023-06-22T00:55:33;17.20;1.00
8152;DHT22;4117;53.622;9.958;2023-06-22T00:58:03;17.20;1.00
8152;DHT22;4117;53.622;9.958;2023-06-22T01:00:31;17.10;1.00
8152;DHT22;4117;53.622;9.958;2023-06-22T01:02:58;17.10;1.00
8152;DHT22;4117;53.622;9.958;2023-06-22T01:05:25;17.10;1.00
8152;DHT22;4117;53.622;9.958;2023-06-22T01:08:20;17.10;1.00
8152;DHT22;4117;53.622;9.958;2023-06-22T01:10:52;17.10;1.00
8152;DHT22;4117;53.622;9.958;2023-06-22T01:13:27;17.10;1.00
8152;DHT22;4117;53.622;9.958;2023-06-22T01:16:01;17.00;1.00
8152;DHT22;4117;53.622;9.958;2023-06-22T01:18:30;17.00;1.00
8152;DHT22;4117;53.622;9.958;2023-06-22T01:21:02;17.00;1.00
8152;DHT22;4117;53.622;9.958;2023-06-22T01:23:50;17.00;1.00
8152;DHT22;4117;53.622;9.958;2023-06-22T01:26:20;17.00;1.00
8152;DHT22;4117;53.622;9.958;2023-06-22T01:28:52;17.00;1.00
8152;DHT22;4117;53.622;9.958;2023-06-22T01:31:21;17.00;1.00
8152;DHT22;4117;53.622;9.958;2023-06-22T01:33:53;17.00;1.00
8152;DHT22;4117;53.622;9.958;2023-06-22T01:36:21;17.00;1.00
8152;DHT22;4117;53.622;9.958;2023-06-22T01:38:49;17.00;1.00
8152;DHT22;4117;53.622;9.958;2023-06-22T01:41:17;16.90;1.00
8152;DHT22;4117;53.622;9.958;2023-06-22T01:43:45;16.90;1.00
8152;DHT22;4117;53.622;9.958;2023-06-22T01:46:14;16.90;1.00
8152;DHT22;4117;53.622;9.958;2023-06-22T01:48:45;16.90;1.00
8152;DHT22;4117;53.622;9.958;2023-06-22T01:51:13;16.90;1.00
8152;DHT22;4117;53.622;9.958;2023-06-22T01:53:39;16.90;1.00
8152;DHT22;4117;53.622;9.958;2023-06-22T01:56:06;16.90;1.00
8152;DHT22;4117;53.622;9.958;2023-06-22T01:58:37;16.90;1.00
8152;DHT22;4117;53.622;9.958;2023-06-22T02:01:10;16.90;1.00
8152;DHT22;4117;53.622;9.958;2023-06-22T02:03:42;16.90;1.00
8152;DHT22;4117;53.622;9.958;2023-06-22T02:06:23;16.80;1.00
8152;DHT22;4117;53.622;9.958;2023-06-22T02:08:55;16.80;1.00
8152;DHT22;4117;53.622;9.958;2023-06-22T02:11:26;16.80;1.00
8152;DHT22;4117;53.622;9.958;2023-06-22T02:13:56;16.80;1.00
8152;DHT22;4117;53.622;9.958;2023-06-22T02:16:24;16.80;1.00
8152;DHT22;4117;53.622;9.958;2023-06-22T02:18:56;16.80;1.00
8152;DHT22;4117;53.622;9.958;2023-06-22T02:21:29;16.80;1.00
8152;DHT22;4117;53.622;9.958;2023-06-22T02:23:56;16.70;1.00
8152;DHT22;4117;53.622;9.958;2023-06-22T02:26:24;16.70;1.00
8152;DHT22;4117;53.622;9.958;2023-06-22T02:28:51;16.70;1.00
8152;DHT22;4117;53.622;9.958;2023-06-22T02:31:19;16.70;1.00
8152;DHT22;4117;53.622;9.958;2023-06-22T02:33:46;16.70;1.00
8152;DHT22;4117;53.622;9.958;2023-06-22T02:36:15;16.70;1.00
8152;DHT22;4117;53.622;9.958;2023-06-22T02:38:42;16.60;1.00
8152;DHT22;4117;53.622;9.958;2023-06-22T02:41:14;16.60;1.00
8152;DHT22;4117;53.622;9.958;2023-06-22T02:43:44;16.60;1.00
8152;DHT22;4117;53.622;9.958;2023-06-22T02:46:11;16.60;1.00
8152;DHT22;4117;53.622;9.958;2023-06-22T02:48:38;16.50;1.00
8152;DHT22;4117;53.622;9.958;2023-06-22T02:51:05;16.60;1.00
8152;DHT22;4117;53.622;9.958;2023-06-22T02:53:34;16.50;1.00
8152;DHT22;4117;53.622;9.958;2023-06-22T02:56:02;16.40;1.00
8152;DHT22;4117;53.622;9.958;2023-06-22T02:58:30;16.40;1.00
8152;DHT22;4117;53.622;9.958;2023-06-22T03:01:04;16.40;1.00
8152;DHT22;4117;53.622;9.958;2023-06-22T03:03:31;16.40;1.00
8152;DHT22;4117;53.622;9.958;2023-06-22T03:05:58;16.40;1.00
8152;DHT22;4117;53.622;9.958;2023-06-22T03:08:27;16.40;1.00
8152;DHT22;4117;53.622;9.958;2023-06-22T03:10:55;16.40;1.00
8152;DHT22;4117;53.622;9.958;2023-06-22T03:13:22;16.30;1.00
8152;DHT22;4117;53.622;9.958;2023-06-22T03:15:49;16.30;1.00
8152;DHT22;4117;53.622;9.958;2023-06-22T03:18:16;16.30;1.00
8152;DHT22;4117;53.622;9.958;2023-06-22T03:20:43;16.30;1.00
8152;DHT22;4117;53.622;9.958;2023-06-22T03:23:10;16.30;1.00
8152;DHT22;4117;53.622;9.958;2023-06-22T03:25:37;16.20;1.00
8152;DHT22;4117;53.622;9.958;2023-06-22T03:28:05;16.30;1.00
8152;DHT22;4117;53.622;9.958;2023-06-22T03:30:32;16.20;1.00
8152;DHT22;4117;53.622;9.958;2023-06-22T03:32:59;16.30;1.00
8152;DHT22;4117;53.622;9.958;2023-06-22T03:35:26;16.30;1.00
8152;DHT22;4117;53.622;9.958;2023-06-22T03:37:53;16.20;1.00
8152;DHT22;4117;53.622;9.958;2023-06-22T03:40:20;16.20;1.00
8152;DHT22;4117;53.622;9.958;2023-06-22T03:42:47;16.20;1.00
8152;DHT22;4117;53.622;9.958;2023-06-22T03:45:15;16.20;1.00
8152;DHT22;4117;53.622;9.958;2023-06-22T03:47:42;16.20;1.00
8152;DHT22;4117;53.622;9.958;2023-06-22T03:50:09;16.20;1.00
8152;DHT22;4117;53.622;9.958;2023-06-22T03:52:36;16.30;1.00
8152;DHT22;4117;53.622;9.958;2023-06-22T03:55:04;16.30;1.00
8152;DHT22;4117;53.622;9.958;2023-06-22T03:57:31;16.20;1.00
8152;DHT22;4117;53.622;9.958;2023-06-22T03:59:58;16.30;1.00
8152;DHT22;4117;53.622;9.958;2023-06-22T04:02:27;16.30;1.00
8152;DHT22;4117;53.622;9.958;2023-06-22T04:04:54;16.30;1.00
8152;DHT22;4117;53.622;9.958;2023-06-22T04:07:21;16.30;1.00
8152;DHT22;4117;53.622;9.958;2023-06-22T04:09:48;16.30;1.00
8152;DHT22;4117;53.622;9.958;2023-06-22T04:12:15;16.40;1.00
8152;DHT22;4117;53.622;9.958;2023-06-22T04:14:41;16.40;1.00
8152;DHT22;4117;53.622;9.958;2023-06-22T04:17:08;16.40;1.00
8152;DHT22;4117;53.622;9.958;2023-06-22T04:19:37;16.50;1.00
8152;DHT22;4117;53.622;9.958;2023-06-22T04:22:04;16.40;1.00
8152;DHT22;4117;53.622;9.958;2023-06-22T04:24:32;16.50;1.00
8152;DHT22;4117;53.622;9.958;2023-06-22T04:26:59;16.50;1.00
8152;DHT22;4117;53.622;9.958;2023-06-22T04:29:28;16.50;1.00
8152;DHT22;4117;53.622;9.958;2023-06-22T04:31:55;16.60;1.00
8152;DHT22;4117;53.622;9.958;2023-06-22T04:34:24;16.50;1.00
8152;DHT22;4117;53.622;9.958;2023-06-22T04:36:53;16.60;1.00
8152;DHT22;4117;53.622;9.958;2023-06-22T04:39:20;16.60;1.00
8152;DHT22;4117;53.622;9.958;2023-06-22T04:41:47;16.60;1.00
8152;DHT22;4117;53.622;9.958;2023-06-22T04:44:15;16.60;1.00
8152;DHT22;4117;53.622;9.958;2023-06-22T04:46:49;16.70;1.00
8152;DHT22;4117;53.622;9.958;2023-06-22T04:49:20;16.70;1.00
8152;DHT22;4117;53.622;9.958;2023-06-22T04:51:47;16.70;1.00
8152;DHT22;4117;53.622;9.958;2023-06-22T04:54:16;16.80;1.00
8152;DHT22;4117;53.622;9.958;2023-06-22T04:56:43;16.80;1.00
8152;DHT22;4117;53.622;9.958;2023-06-22T04:59:12;16.80;1.00
8152;DHT22;4117;53.622;9.958;2023-06-22T05:01:39;16.80;1.00
8152;DHT22;4117;53.622;9.958;2023-06-22T05:04:06;16.90;1.00
8152;DHT22;4117;53.622;9.958;2023-06-22T05:06:34;16.90;1.00
8152;DHT22;4117;53.622;9.958;2023-06-22T05:09:01;16.90;1.00
8152;DHT22;4117;53.622;9.958;2023-06-22T05:11:30;17.00;1.00
8152;DHT22;4117;53.622;9.958;2023-06-22T05:13:57;17.00;1.00
8152;DHT22;4117;53.622;9.958;2023-06-22T05:16:24;17.00;1.00
8152;DHT22;4117;53.622;9.958;2023-06-22T05:18:52;17.10;1.00
8152;DHT22;4117;53.622;9.958;2023-06-22T05:21:22;17.10;1.00
8152;DHT22;4117;53.622;9.958;2023-06-22T05:23:49;17.20;1.00
8152;DHT22;4117;53.622;9.958;2023-06-22T05:26:16;17.20;1.00
8152;DHT22;4117;53.622;9.958;2023-06-22T05:28:44;17.30;1.00
8152;DHT22;4117;53.622;9.958;2023-06-22T05:31:12;17.30;1.00
8152;DHT22;4117;53.622;9.958;2023-06-22T05:33:40;17.30;1.00
8152;DHT22;4117;53.622;9.958;2023-06-22T05:36:07;17.40;1.00
8152;DHT22;4117;53.622;9.958;2023-06-22T05:38:34;17.40;1.00
8152;DHT22;4117;53.622;9.958;2023-06-22T05:41:01;17.50;1.00
8152;DHT22;4117;53.622;9.958;2023-06-22T05:43:28;17.50;1.00
8152;DHT22;4117;53.622;9.958;2023-06-22T05:45:57;17.50;1.00
8152;DHT22;4117;53.622;9.958;2023-06-22T05:48:24;17.60;1.00
8152;DHT22;4117;53.622;9.958;2023-06-22T05:50:51;17.60;1.00
8152;DHT22;4117;53.622;9.958;2023-06-22T05:53:18;17.70;1.00
8152;DHT22;4117;53.622;9.958;2023-06-22T05:55:45;17.70;1.00
8152;DHT22;4117;53.622;9.958;2023-06-22T05:58:12;17.80;1.00
8152;DHT22;4117;53.622;9.958;2023-06-22T06:00:39;17.80;1.00
8152;DHT22;4117;53.622;9.958;2023-06-22T06:03:08;17.90;1.00
8152;DHT22;4117;53.622;9.958;2023-06-22T06:05:36;18.00;1.00
8152;DHT22;4117;53.622;9.958;2023-06-22T06:08:05;18.00;1.00
8152;DHT22;4117;53.622;9.958;2023-06-22T06:10:33;18.00;1.00
8152;DHT22;4117;53.622;9.958;2023-06-22T06:13:01;18.10;1.00
8152;DHT22;4117;53.622;9.958;2023-06-22T06:15:30;18.20;1.00
8152;DHT22;4117;53.622;9.958;2023-06-22T06:17:57;18.20;1.00
8152;DHT22;4117;53.622;9.958;2023-06-22T06:20:26;18.30;1.00
8152;DHT22;4117;53.622;9.958;2023-06-22T06:22:54;18.30;1.00
8152;DHT22;4117;53.622;9.958;2023-06-22T06:25:22;18.30;1.00
8152;DHT22;4117;53.622;9.958;2023-06-22T06:27:51;18.40;1.00
8152;DHT22;4117;53.622;9.958;2023-06-22T06:30:20;18.40;1.00
8152;DHT22;4117;53.622;9.958;2023-06-22T06:32:49;18.50;1.00
8152;DHT22;4117;53.622;9.958;2023-06-22T06:35:16;18.50;1.00
8152;DHT22;4117;53.622;9.958;2023-06-22T06:37:48;18.50;1.00
8152;DHT22;4117;53.622;9.958;2023-06-22T06:40:16;18.50;1.00
8152;DHT22;4117;53.622;9.958;2023-06-22T06:42:44;18.50;1.00
8152;DHT22;4117;53.622;9.958;2023-06-22T06:45:12;18.50;1.00
8152;DHT22;4117;53.622;9.958;2023-06-22T06:47:39;18.50;1.00
8152;DHT22;4117;53.622;9.958;2023-06-22T06:50:07;18.50;1.00
8152;DHT22;4117;53.622;9.958;2023-06-22T06:52:34;18.60;1.00
8152;DHT22;4117;53.622;9.958;2023-06-22T06:55:03;18.60;1.00
8152;DHT22;4117;53.622;9.958;2023-06-22T06:57:33;18.70;1.00
8152;DHT22;4117;53.622;9.958;2023-06-22T07:00:00;18.70;1.00
8152;DHT22;4117;53.622;9.958;2023-06-22T07:02:28;18.80;1.00
8152;DHT22;4117;53.622;9.958;2023-06-22T07:04:55;18.90;1.00
8152;DHT22;4117;53.622;9.958;2023-06-22T07:07:22;18.90;1.00
8152;DHT22;4117;53.622;9.958;2023-06-22T07:09:49;19.00;1.00
8152;DHT22;4117;53.622;9.958;2023-06-22T07:12:17;19.10;1.00
8152;DHT22;4117;53.622;9.958;2023-06-22T07:14:44;19.20;1.00
8152;DHT22;4117;53.622;9.958;2023-06-22T07:17:11;19.20;1.00
8152;DHT22;4117;53.622;9.958;2023-06-22T07:19:38;19.40;1.00
8152;DHT22;4117;53.622;9.958;2023-06-22T07:22:06;19.50;1.00
8152;DHT22;4117;53.622;9.958;2023-06-22T07:24:32;19.50;1.00
8152;DHT22;4117;53.622;9.958;2023-06-22T07:26:59;19.60;1.00
8152;DHT22;4117;53.622;9.958;2023-06-22T07:29:29;19.70;1.00
8152;DHT22;4117;53.622;9.958;2023-06-22T07:31:57;19.80;1.00
8152;DHT22;4117;53.622;9.958;2023-06-22T07:34:26;19.90;1.00
8152;DHT22;4117;53.622;9.958;2023-06-22T07:36:53;19.90;1.00
8152;DHT22;4117;53.622;9.958;2023-06-22T07:39:20;19.90;1.00
8152;DHT22;4117;53.622;9.958;2023-06-22T07:41:51;19.90;1.00
8152;DHT22;4117;53.622;9.958;2023-06-22T07:44:18;19.80;1.00
8152;DHT22;4117;53.622;9.958;2023-06-22T07:46:46;19.80;1.00
8152;DHT22;4117;53.622;9.958;2023-06-22T07:49:13;19.90;1.00
8152;DHT22;4117;53.622;9.958;2023-06-22T07:51:40;19.90;1.00
8152;DHT22;4117;53.622;9.958;2023-06-22T07:54:08;20.00;1.00
8152;DHT22;4117;53.622;9.958;2023-06-22T07:56:36;20.00;1.00
8152;DHT22;4117;53.622;9.958;2023-06-22T07:59:03;20.10;1.00
8152;DHT22;4117;53.622;9.958;2023-06-22T08:01:30;20.10;1.00
8152;DHT22;4117;53.622;9.958;2023-06-22T08:03:58;20.30;1.00
8152;DHT22;4117;53.622;9.958;2023-06-22T08:06:25;20.30;1.00
8152;DHT22;4117;53.622;9.958;2023-06-22T08:08:52;20.40;1.00
8152;DHT22;4117;53.622;9.958;2023-06-22T08:11:20;20.50;1.00
8152;DHT22;4117;53.622;9.958;2023-06-22T08:13:49;20.70;1.00
8152;DHT22;4117;53.622;9.958;2023-06-22T08:16:16;20.70;1.00
8152;DHT22;4117;53.622;9.958;2023-06-22T08:18:43;20.60;1.00
8152;DHT22;4117;53.622;9.958;2023-06-22T08:21:11;20.60;1.00
8152;DHT22;4117;53.622;9.958;2023-06-22T08:23:38;20.60;1.00
8152;DHT22;4117;53.622;9.958;2023-06-22T08:26:05;20.60;1.00
8152;DHT22;4117;53.622;9.958;2023-06-22T08:28:32;20.60;1.00
8152;DHT22;4117;53.622;9.958;2023-06-22T08:30:59;20.60;1.00
8152;DHT22;4117;53.622;9.958;2023-06-22T08:33:27;20.70;1.00
8152;DHT22;4117;53.622;9.958;2023-06-22T08:35:56;20.90;1.00
8152;DHT22;4117;53.622;9.958;2023-06-22T08:38:24;21.00;1.00
8152;DHT22;4117;53.622;9.958;2023-06-22T08:40:51;21.00;1.00
8152;DHT22;4117;53.622;9.958;2023-06-22T08:43:18;21.10;1.00
8152;DHT22;4117;53.622;9.958;2023-06-22T08:45:45;21.10;1.00
8152;DHT22;4117;53.622;9.958;2023-06-22T08:48:12;21.00;1.00
8152;DHT22;4117;53.622;9.958;2023-06-22T08:50:39;21.20;1.00
8152;DHT22;4117;53.622;9.958;2023-06-22T08:53:07;21.30;1.00
8152;DHT22;4117;53.622;9.958;2023-06-22T08:55:35;21.30;1.00
8152;DHT22;4117;53.622;9.958;2023-06-22T08:58:02;21.30;1.00
8152;DHT22;4117;53.622;9.958;2023-06-22T09:00:30;21.30;1.00
8152;DHT22;4117;53.622;9.958;2023-06-22T09:03:00;21.40;1.00
8152;DHT22;4117;53.622;9.958;2023-06-22T09:05:27;21.40;1.00
8152;DHT22;4117;53.622;9.958;2023-06-22T09:07:55;21.70;1.00
8152;DHT22;4117;53.622;9.958;2023-06-22T09:10:24;21.80;1.00
8152;DHT22;4117;53.622;9.958;2023-06-22T09:12:52;21.80;1.00
8152;DHT22;4117;53.622;9.958;2023-06-22T09:15:19;21.80;1.00
8152;DHT22;4117;53.622;9.958;2023-06-22T09:17:46;21.70;1.00
8152;DHT22;4117;53.622;9.958;2023-06-22T09:20:13;21.70;1.00
8152;DHT22;4117;53.622;9.958;2023-06-22T09:22:41;21.70;1.00
8152;DHT22;4117;53.622;9.958;2023-06-22T09:25:08;22.00;1.00
8152;DHT22;4117;53.622;9.958;2023-06-22T09:27:36;22.10;1.00
8152;DHT22;4117;53.622;9.958;2023-06-22T09:30:05;22.10;1.00
8152;DHT22;4117;53.622;9.958;2023-06-22T09:32:32;22.10;1.00
8152;DHT22;4117;53.622;9.958;2023-06-22T09:35:03;22.00;1.00
8152;DHT22;4117;53.622;9.958;2023-06-22T09:37:32;22.00;1.00
8152;DHT22;4117;53.622;9.958;2023-06-22T09:39:59;22.20;1.00
8152;DHT22;4117;53.622;9.958;2023-06-22T09:42:26;22.30;1.00
8152;DHT22;4117;53.622;9.958;2023-06-22T09:44:53;22.30;1.00
8152;DHT22;4117;53.622;9.958;2023-06-22T09:47:22;22.30;1.00
8152;DHT22;4117;53.622;9.958;2023-06-22T09:49:48;22.40;1.00
8152;DHT22;4117;53.622;9.958;2023-06-22T09:52:16;22.40;1.00
8152;DHT22;4117;53.622;9.958;2023-06-22T09:54:43;22.50;1.00
8152;DHT22;4117;53.622;9.958;2023-06-22T09:57:10;22.40;1.00
8152;DHT22;4117;53.622;9.958;2023-06-22T09:59:37;22.30;1.00
8152;DHT22;4117;53.622;9.958;2023-06-22T10:02:06;22.40;1.00
8152;DHT22;4117;53.622;9.958;2023-06-22T10:04:34;22.40;1.00
8152;DHT22;4117;53.622;9.958;2023-06-22T10:07:02;22.40;1.00
8152;DHT22;4117;53.622;9.958;2023-06-22T10:09:29;22.50;1.00
8152;DHT22;4117;53.622;9.958;2023-06-22T10:11:56;22.50;1.00
8152;DHT22;4117;53.622;9.958;2023-06-22T10:14:23;22.60;1.00
8152;DHT22;4117;53.622;9.958;2023-06-22T10:16:52;22.50;1.00
8152;DHT22;4117;53.622;9.958;2023-06-22T10:19:19;22.60;1.00
8152;DHT22;4117;53.622;9.958;2023-06-22T10:21:47;22.60;1.00
8152;DHT22;4117;53.622;9.958;2023-06-22T10:24:14;22.70;1.00
8152;DHT22;4117;53.622;9.958;2023-06-22T10:26:41;22.80;1.00
8152;DHT22;4117;53.622;9.958;2023-06-22T10:29:08;22.80;1.00
8152;DHT22;4117;53.622;9.958;2023-06-22T10:31:35;22.80;1.00
8152;DHT22;4117;53.622;9.958;2023-06-22T10:34:02;23.00;1.00
8152;DHT22;4117;53.622;9.958;2023-06-22T10:36:29;23.20;1.00
8152;DHT22;4117;53.622;9.958;2023-06-22T10:38:57;23.20;1.00
8152;DHT22;4117;53.622;9.958;2023-06-22T10:41:25;23.20;1.00
8152;DHT22;4117;53.622;9.958;2023-06-22T10:43:54;23.10;1.00
8152;DHT22;4117;53.622;9.958;2023-06-22T10:46:21;23.00;1.00
8152;DHT22;4117;53.622;9.958;2023-06-22T10:48:48;23.00;1.00
8152;DHT22;4117;53.622;9.958;2023-06-22T10:51:15;23.00;1.00
8152;DHT22;4117;53.622;9.958;2023-06-22T10:53:42;23.10;1.00
8152;DHT22;4117;53.622;9.958;2023-06-22T10:56:11;23.10;1.00
8152;DHT22;4117;53.622;9.958;2023-06-22T10:58:38;23.20;1.00
8152;DHT22;4117;53.622;9.958;2023-06-22T11:01:05;23.30;1.00
8152;DHT22;4117;53.622;9.958;2023-06-22T11:03:32;23.40;1.00
8152;DHT22;4117;53.622;9.958;2023-06-22T11:05:58;23.60;1.00
8152;DHT22;4117;53.622;9.958;2023-06-22T11:08:25;23.70;1.00
8152;DHT22;4117;53.622;9.958;2023-06-22T11:10:52;23.80;1.00
8152;DHT22;4117;53.622;9.958;2023-06-22T11:13:21;23.80;1.00
8152;DHT22;4117;53.622;9.958;2023-06-22T11:15:47;23.70;1.00
8152;DHT22;4117;53.622;9.958;2023-06-22T11:18:14;23.80;1.00
8152;DHT22;4117;53.622;9.958;2023-06-22T11:20:42;23.80;1.00
8152;DHT22;4117;53.622;9.958;2023-06-22T11:23:09;23.70;1.00
8152;DHT22;4117;53.622;9.958;2023-06-22T11:25:37;23.80;1.00
8152;DHT22;4117;53.622;9.958;2023-06-22T11:28:04;23.80;1.00
8152;DHT22;4117;53.622;9.958;2023-06-22T11:30:33;23.80;1.00
8152;DHT22;4117;53.622;9.958;2023-06-22T11:33:00;24.00;1.00
8152;DHT22;4117;53.622;9.958;2023-06-22T11:35:27;24.00;1.00
8152;DHT22;4117;53.622;9.958;2023-06-22T11:37:53;24.00;1.00
8152;DHT22;4117;53.622;9.958;2023-06-22T11:40:21;24.00;1.00
8152;DHT22;4117;53.622;9.958;2023-06-22T11:42:51;24.00;1.00
8152;DHT22;4117;53.622;9.958;2023-06-22T11:45:18;24.00;1.00
8152;DHT22;4117;53.622;9.958;2023-06-22T11:47:47;24.00;1.00
8152;DHT22;4117;53.622;9.958;2023-06-22T11:50:14;24.00;1.00
8152;DHT22;4117;53.622;9.958;2023-06-22T11:52:41;24.10;1.00
8152;DHT22;4117;53.622;9.958;2023-06-22T11:55:08;24.20;1.00
8152;DHT22;4117;53.622;9.958;2023-06-22T11:57:37;24.20;1.00
8152;DHT22;4117;53.622;9.958;2023-06-22T12:00:05;24.20;1.00
8152;DHT22;4117;53.622;9.958;2023-06-22T12:02:43;24.20;1.00
8152;DHT22;4117;53.622;9.958;2023-06-22T12:05:11;24.10;1.00
8152;DHT22;4117;53.622;9.958;2023-06-22T12:07:39;24.10;1.00
8152;DHT22;4117;53.622;9.958;2023-06-22T12:10:06;24.20;1.00
8152;DHT22;4117;53.622;9.958;2023-06-22T12:12:33;24.20;1.00
8152;DHT22;4117;53.622;9.958;2023-06-22T12:15:00;24.20;1.00
8152;DHT22;4117;53.622;9.958;2023-06-22T12:17:29;24.40;1.00
8152;DHT22;4117;53.622;9.958;2023-06-22T12:19:56;24.40;1.00
8152;DHT22;4117;53.622;9.958;2023-06-22T12:22:24;24.40;1.00
8152;DHT22;4117;53.622;9.958;2023-06-22T12:24:51;24.40;1.00
8152;DHT22;4117;53.622;9.958;2023-06-22T12:27:18;24.30;1.00
8152;DHT22;4117;53.622;9.958;2023-06-22T12:29:45;24.30;1.00
8152;DHT22;4117;53.622;9.958;2023-06-22T12:32:13;24.20;1.00
8152;DHT22;4117;53.622;9.958;2023-06-22T12:34:41;24.20;1.00
8152;DHT22;4117;53.622;9.958;2023-06-22T12:37:08;24.20;1.00
8152;DHT22;4117;53.622;9.958;2023-06-22T12:39:37;24.20;1.00
8152;DHT22;4117;53.622;9.958;2023-06-22T12:42:04;24.20;1.00
8152;DHT22;4117;53.622;9.958;2023-06-22T12:44:34;24.20;1.00
8152;DHT22;4117;53.622;9.958;2023-06-22T12:47:01;24.40;1.00
8152;DHT22;4117;53.622;9.958;2023-06-22T12:49:28;24.40;1.00
8152;DHT22;4117;53.622;9.958;2023-06-22T12:51:54;24.50;1.00
8152;DHT22;4117;53.622;9.958;2023-06-22T12:54:21;24.50;1.00
8152;DHT22;4117;53.622;9.958;2023-06-22T12:56:50;24.50;1.00
8152;DHT22;4117;53.622;9.958;2023-06-22T12:59:17;24.70;1.00
8152;DHT22;4117;53.622;9.958;2023-06-22T13:01:44;24.70;1.00
8152;DHT22;4117;53.622;9.958;2023-06-22T13:04:11;24.70;1.00
8152;DHT22;4117;53.622;9.958;2023-06-22T13:06:40;24.80;1.00
8152;DHT22;4117;53.622;9.958;2023-06-22T13:09:07;24.90;1.00
8152;DHT22;4117;53.622;9.958;2023-06-22T13:11:34;24.90;1.00
8152;DHT22;4117;53.622;9.958;2023-06-22T13:14:02;24.90;1.00
8152;DHT22;4117;53.622;9.958;2023-06-22T13:16:30;24.90;1.00
8152;DHT22;4117;53.622;9.958;2023-06-22T13:18:56;25.00;1.00
8152;DHT22;4117;53.622;9.958;2023-06-22T13:21:23;25.00;1.00
8152;DHT22;4117;53.622;9.958;2023-06-22T13:23:50;25.10;1.00
8152;DHT22;4117;53.622;9.958;2023-06-22T13:26:17;25.20;1.00
8152;DHT22;4117;53.622;9.958;2023-06-22T13:28:44;25.10;1.00
8152;DHT22;4117;53.622;9.958;2023-06-22T13:31:13;25.20;1.00
8152;DHT22;4117;53.622;9.958;2023-06-22T13:33:40;25.10;1.00
8152;DHT22;4117;53.622;9.958;2023-06-22T13:36:07;25.00;1.00
8152;DHT22;4117;53.622;9.958;2023-06-22T13:38:35;25.00;1.00
8152;DHT22;4117;53.622;9.958;2023-06-22T13:41:04;25.00;1.00
8152;DHT22;4117;53.622;9.958;2023-06-22T13:43:31;24.90;1.00
8152;DHT22;4117;53.622;9.958;2023-06-22T13:45:58;24.90;1.00
8152;DHT22;4117;53.622;9.958;2023-06-22T13:48:26;25.00;1.00
8152;DHT22;4117;53.622;9.958;2023-06-22T13:50:54;25.00;1.00
8152;DHT22;4117;53.622;9.958;2023-06-22T13:53:21;25.00;1.00
8152;DHT22;4117;53.622;9.958;2023-06-22T13:55:48;25.00;1.00
8152;DHT22;4117;53.622;9.958;2023-06-22T13:58:15;25.00;1.00
8152;DHT22;4117;53.622;9.958;2023-06-22T14:00:42;25.10;1.00
8152;DHT22;4117;53.622;9.958;2023-06-22T14:03:09;25.10;1.00
8152;DHT22;4117;53.622;9.958;2023-06-22T14:05:37;25.20;1.00
8152;DHT22;4117;53.622;9.958;2023-06-22T14:08:04;25.20;1.00
8152;DHT22;4117;53.622;9.958;2023-06-22T14:10:31;25.20;1.00
8152;DHT22;4117;53.622;9.958;2023-06-22T14:12:58;25.20;1.00
8152;DHT22;4117;53.622;9.958;2023-06-22T14:15:26;25.20;1.00
8152;DHT22;4117;53.622;9.958;2023-06-22T14:17:53;25.20;1.00
8152;DHT22;4117;53.622;9.958;2023-06-22T14:20:20;25.20;1.00
8152;DHT22;4117;53.622;9.958;2023-06-22T14:22:48;25.10;1.00
8152;DHT22;4117;53.622;9.958;2023-06-22T14:25:15;25.10;1.00
8152;DHT22;4117;53.622;9.958;2023-06-22T14:27:42;25.10;1.00
8152;DHT22;4117;53.622;9.958;2023-06-22T14:30:10;25.10;1.00
8152;DHT22;4117;53.622;9.958;2023-06-22T14:32:37;25.10;1.00
8152;DHT22;4117;53.622;9.958;2023-06-22T14:35:04;25.10;1.00
8152;DHT22;4117;53.622;9.958;2023-06-22T14:37:31;25.00;1.00
8152;DHT22;4117;53.622;9.958;2023-06-22T14:39:59;25.10;1.00
8152;DHT22;4117;53.622;9.958;2023-06-22T14:42:26;25.00;1.00
8152;DHT22;4117;53.622;9.958;2023-06-22T14:44:55;25.00;1.00
8152;DHT22;4117;53.622;9.958;2023-06-22T14:47:22;25.00;1.00
8152;DHT22;4117;53.622;9.958;2023-06-22T14:49:49;25.00;1.00
8152;DHT22;4117;53.622;9.958;2023-06-22T14:52:16;25.00;1.00
8152;DHT22;4117;53.622;9.958;2023-06-22T14:54:43;25.00;1.00
8152;DHT22;4117;53.622;9.958;2023-06-22T14:57:11;24.90;1.00
8152;DHT22;4117;53.622;9.958;2023-06-22T14:59:38;24.90;1.00
8152;DHT22;4117;53.622;9.958;2023-06-22T15:02:05;24.90;1.00
8152;DHT22;4117;53.622;9.958;2023-06-22T15:04:33;24.90;1.00
8152;DHT22;4117;53.622;9.958;2023-06-22T15:07:00;24.90;1.00
8152;DHT22;4117;53.622;9.958;2023-06-22T15:09:27;24.90;1.00
8152;DHT22;4117;53.622;9.958;2023-06-22T15:11:54;24.80;1.00
8152;DHT22;4117;53.622;9.958;2023-06-22T15:14:22;24.80;1.00
8152;DHT22;4117;53.622;9.958;2023-06-22T15:16:50;24.80;1.00
8152;DHT22;4117;53.622;9.958;2023-06-22T15:19:17;24.70;1.00
8152;DHT22;4117;53.622;9.958;2023-06-22T15:21:43;24.70;1.00
8152;DHT22;4117;53.622;9.958;2023-06-22T15:24:11;24.70;1.00
8152;DHT22;4117;53.622;9.958;2023-06-22T15:26:38;24.70;1.00
8152;DHT22;4117;53.622;9.958;2023-06-22T15:29:05;24.70;1.00
8152;DHT22;4117;53.622;9.958;2023-06-22T15:31:33;24.70;1.00
8152;DHT22;4117;53.622;9.958;2023-06-22T15:34:00;24.70;1.00
8152;DHT22;4117;53.622;9.958;2023-06-22T15:36:29;24.60;1.00
8152;DHT22;4117;53.622;9.958;2023-06-22T15:38:56;24.60;1.00
8152;DHT22;4117;53.622;9.958;2023-06-22T15:41:23;24.50;1.00
8152;DHT22;4117;53.622;9.958;2023-06-22T15:43:49;24.50;1.00
8152;DHT22;4117;53.622;9.958;2023-06-22T15:46:16;24.50;1.00
8152;DHT22;4117;53.622;9.958;2023-06-22T15:48:45;24.50;1.00
8152;DHT22;4117;53.622;9.958;2023-06-22T15:51:12;24.50;1.00
8152;DHT22;4117;53.622;9.958;2023-06-22T15:53:40;24.50;1.00
8152;DHT22;4117;53.622;9.958;2023-06-22T15:56:07;24.50;1.00
8152;DHT22;4117;53.622;9.958;2023-06-22T15:58:35;24.40;1.00
8152;DHT22;4117;53.622;9.958;2023-06-22T16:01:02;24.40;1.00
8152;DHT22;4117;53.622;9.958;2023-06-22T16:03:28;24.40;1.00
8152;DHT22;4117;53.622;9.958;2023-06-22T16:05:57;24.40;1.00
8152;DHT22;4117;53.622;9.958;2023-06-22T16:08:24;24.30;1.00
8152;DHT22;4117;53.622;9.958;2023-06-22T16:10:54;24.30;1.00
8152;DHT22;4117;53.622;9.958;2023-06-22T16:13:21;24.30;1.00
8152;DHT22;4117;53.622;9.958;2023-06-22T16:15:48;24.20;1.00
8152;DHT22;4117;53.622;9.958;2023-06-22T16:18:15;24.20;1.00
8152;DHT22;4117;53.622;9.958;2023-06-22T16:20:42;24.10;1.00